Time;durP1;ratioP1;P1;durP2;ratioP2;P2;SDS_P1;SDS_P2;PMS_P1;PMS_P2;Temp;Humidity;BMP_temperature;BMP_pressure;BME280_temperature;BME280_humidity;BME280_pressure;Samples;Min_cycle;Max_cycle;Signal;HPM_P1;HPM_P2
2023/12/23 00:01:45;;;;;;;4.18;0.68;;;9.80;99.90;;;;;;4905612;29;20029;-77
2023/12/23 00:04:14;;;;;;;3.90;0.70;;;9.70;99.90;;;;;;4907521;29;20091;-77
2023/12/23 00:06:39;;;;;;;3.58;0.65;;;9.70;99.90;;;;;;4889667;29;20060;-79
2023/12/23 00:09:05;;;;;;;4.13;0.90;;;9.70;99.90;;;;;;4907240;29;20153;-80
2023/12/23 00:11:43;;;;;;;4.63;0.65;;;9.70;99.90;;;;;;4905917;29;20021;-77
2023/12/23 00:14:14;;;;;;;4.22;0.73;;;9.70;99.90;;;;;;4906484;29;20052;-77
2023/12/23 00:16:47;;;;;;;2.78;0.60;;;9.70;99.90;;;;;;4906772;29;20040;-78
2023/12/23 00:19:16;;;;;;;2.97;0.63;;;9.70;99.90;;;;;;4911284;29;20103;-77
2023/12/23 00:21:41;;;;;;;4.13;0.70;;;9.70;99.90;;;;;;4925953;29;20032;-78
2023/12/23 00:24:16;;;;;;;2.17;0.52;;;9.70;99.90;;;;;;4924663;29;20024;-79
2023/12/23 00:26:44;;;;;;;3.40;0.57;;;9.70;99.90;;;;;;4908891;29;20024;-79
2023/12/23 00:29:13;;;;;;;3.20;0.55;;;9.70;99.90;;;;;;4925784;29;20440;-80
2023/12/23 00:31:42;;;;;;;2.40;0.60;;;9.70;99.90;;;;;;4909029;29;20024;-77
2023/12/23 00:34:10;;;;;;;3.03;0.50;;;9.80;99.90;;;;;;4925937;29;20039;-77
2023/12/23 00:36:39;;;;;;;4.00;0.75;;;9.80;99.90;;;;;;4907054;29;20076;-78
2023/12/23 00:39:08;;;;;;;2.63;0.63;;;9.70;99.90;;;;;;4892687;29;20223;-80
2023/12/23 00:41:37;;;;;;;3.67;0.60;;;9.80;99.90;;;;;;4906316;29;20036;-78
2023/12/23 00:44:03;;;;;;;4.55;1.45;;;9.70;99.90;;;;;;4907266;29;20041;-79
2023/12/23 00:46:29;;;;;;;4.07;0.93;;;9.60;99.90;;;;;;4901765;29;20084;-79
2023/12/23 00:48:55;;;;;;;2.30;0.63;;;9.60;99.90;;;;;;4909112;29;20306;-79
2023/12/23 00:51:23;;;;;;;4.93;1.02;;;9.40;99.90;;;;;;4925827;29;20083;-77
2023/12/23 00:53:49;;;;;;;2.28;0.50;;;9.40;99.90;;;;;;4893133;29;20020;-80
2023/12/23 00:56:19;;;;;;;3.30;0.70;;;9.40;99.90;;;;;;4889536;29;20055;-80
2023/12/23 00:58:45;;;;;;;4.70;0.68;;;9.40;99.90;;;;;;4874594;29;20398;-78
2023/12/23 01:01:19;;;;;;;6.00;0.70;;;9.40;99.90;;;;;;4907082;29;20020;-78
2023/12/23 01:03:57;;;;;;;5.93;0.55;;;9.40;99.90;;;;;;4874437;29;20024;-79
2023/12/23 01:06:26;;;;;;;2.50;0.43;;;9.50;99.90;;;;;;4874574;29;20112;-81
2023/12/23 01:08:52;;;;;;;3.85;0.73;;;9.50;99.90;;;;;;4874360;29;20029;-81
2023/12/23 01:11:33;;;;;;;3.00;0.60;;;9.40;99.90;;;;;;4890990;29;20319;-77
2023/12/23 01:14:01;;;;;;;2.92;0.60;;;9.40;99.90;;;;;;4873975;29;20345;-79
2023/12/23 01:16:28;;;;;;;1.92;0.40;;;9.40;99.90;;;;;;4890127;29;20040;-81
2023/12/23 01:18:53;;;;;;;2.60;0.40;;;9.30;99.90;;;;;;4910048;29;20083;-79
2023/12/23 01:21:31;;;;;;;2.72;0.60;;;9.40;99.90;;;;;;4909276;29;20040;-80
2023/12/23 01:23:56;;;;;;;3.90;0.50;;;9.40;99.90;;;;;;4907308;29;20056;-77
2023/12/23 01:26:22;;;;;;;3.63;0.75;;;9.50;99.90;;;;;;4894326;29;20130;-78
2023/12/23 01:29:16;;;;;;;3.22;0.60;;;9.50;99.90;;;;;;4900449;29;20025;-79
2023/12/23 01:31:45;;;;;;;1.48;0.40;;;9.50;99.90;;;;;;4909679;29;20256;-78
2023/12/23 01:34:14;;;;;;;2.25;0.38;;;9.50;99.90;;;;;;4909274;29;20036;-78
2023/12/23 01:36:39;;;;;;;2.70;0.50;;;9.50;99.90;;;;;;4909822;29;20031;-78
2023/12/23 01:39:14;;;;;;;2.00;0.50;;;9.50;99.90;;;;;;4908598;29;20028;-78
2023/12/23 01:41:40;;;;;;;2.47;0.30;;;9.50;99.90;;;;;;4909600;29;20044;-78
2023/12/23 01:44:11;;;;;;;1.92;0.47;;;9.50;99.90;;;;;;4910414;29;20025;-77
2023/12/23 01:46:46;;;;;;;2.00;0.55;;;9.40;99.90;;;;;;4902512;29;20032;-81
2023/12/23 01:49:16;;;;;;;2.38;0.52;;;9.40;99.90;;;;;;4910443;29;20144;-77
2023/12/23 01:52:10;;;;;;;4.97;0.70;;;9.40;99.90;;;;;;4911377;29;20046;-78
2023/12/23 01:54:42;;;;;;;3.83;0.77;;;9.30;99.90;;;;;;4911643;29;20047;-77
2023/12/23 01:57:52;;;;;;;3.83;0.50;;;9.30;99.90;;;;;;4909308;29;20127;-78
2023/12/23 02:00:18;;;;;;;4.57;0.60;;;9.30;99.90;;;;;;4896224;29;20044;-77
2023/12/23 02:02:47;;;;;;;4.72;0.90;;;9.30;99.90;;;;;;4923716;29;20024;-80
2023/12/23 02:05:16;;;;;;;5.43;0.73;;;9.40;99.90;;;;;;4928561;29;20066;-78
2023/12/23 02:07:57;;;;;;;4.35;1.10;;;9.40;99.90;;;;;;4911460;29;20023;-80
2023/12/23 02:13:32;;;;;;;5.63;0.77;;;9.40;99.90;;;;;;4927199;29;20310;-78
2023/12/23 02:19:01;;;;;;;3.67;0.80;;;9.40;99.90;;;;;;4882290;29;20082;-79
2023/12/23 02:21:56;;;;;;;5.00;0.90;;;9.40;99.90;;;;;;4900220;29;20307;-77
2023/12/23 02:24:22;;;;;;;3.75;0.60;;;9.40;99.90;;;;;;4893056;29;20056;-77
2023/12/23 02:26:53;;;;;;;4.97;0.90;;;9.40;99.90;;;;;;4909127;29;20044;-79
2023/12/23 02:29:29;;;;;;;4.53;0.90;;;9.30;99.90;;;;;;4907073;29;20073;-79
2023/12/23 02:32:33;;;;;;;3.60;0.82;;;9.30;99.90;;;;;;4894421;29;20036;-80
2023/12/23 02:34:59;;;;;;;3.63;1.08;;;9.40;99.90;;;;;;4877456;29;20028;-78
2023/12/23 02:37:24;;;;;;;4.47;0.80;;;9.30;99.90;;;;;;4880187;29;20028;-79
2023/12/23 02:40:05;;;;;;;4.88;0.60;;;9.30;99.90;;;;;;4908286;29;20100;-78
2023/12/23 02:42:31;;;;;;;4.10;0.60;;;9.20;99.90;;;;;;4908017;29;20364;-78
2023/12/23 02:44:59;;;;;;;2.00;0.60;;;9.10;99.90;;;;;;4909342;29;20092;-78
2023/12/23 02:47:26;;;;;;;2.88;0.60;;;9.20;99.90;;;;;;4891230;29;20100;-78
2023/12/23 02:50:01;;;;;;;2.60;0.55;;;9.10;99.90;;;;;;4908525;29;20058;-81
2023/12/23 02:52:26;;;;;;;5.38;0.60;;;9.20;99.90;;;;;;4907837;29;20036;-79
2023/12/23 02:54:52;;;;;;;4.25;0.90;;;9.10;99.90;;;;;;4908160;29;20040;-76
2023/12/23 02:57:18;;;;;;;2.95;0.60;;;9.20;99.90;;;;;;4925233;29;20054;-77
2023/12/23 02:59:49;;;;;;;1.95;0.50;;;9.20;99.90;;;;;;4927362;29;20028;-79
2023/12/23 03:02:18;;;;;;;4.82;0.50;;;9.20;99.90;;;;;;4911033;29;20028;-81
2023/12/23 03:04:46;;;;;;;3.20;0.50;;;9.20;99.90;;;;;;4909542;29;20240;-79
2023/12/23 03:07:12;;;;;;;3.88;0.90;;;9.30;99.90;;;;;;4927498;29;20313;-81
2023/12/23 03:09:38;;;;;;;3.30;0.80;;;9.30;99.90;;;;;;4895128;29;20040;-79
2023/12/23 03:12:29;;;;;;;5.00;1.00;;;9.20;99.90;;;;;;4916833;29;20420;-80
2023/12/23 03:15:16;;;;;;;5.88;0.80;;;9.20;99.90;;;;;;4907568;29;20345;-79
2023/12/23 03:17:41;;;;;;;3.22;0.80;;;9.30;99.90;;;;;;4907802;29;20401;-78
2023/12/23 03:20:08;;;;;;;3.45;0.70;;;9.30;99.90;;;;;;4908073;29;20040;-77
2023/12/23 03:22:43;;;;;;;5.18;0.73;;;9.30;99.90;;;;;;4891223;29;20104;-78
2023/12/23 03:25:20;;;;;;;3.83;0.80;;;9.30;99.90;;;;;;4891916;29;20035;-78
2023/12/23 03:27:46;;;;;;;3.92;0.90;;;9.30;99.90;;;;;;4915749;29;20032;-80
2023/12/23 03:30:12;;;;;;;2.97;0.63;;;9.30;99.90;;;;;;4927146;29;20083;-79
2023/12/23 03:32:38;;;;;;;3.60;0.95;;;9.40;99.90;;;;;;4925739;29;20032;-79
2023/12/23 03:35:06;;;;;;;3.83;0.70;;;9.40;99.90;;;;;;4926237;29;20027;-79
2023/12/23 03:37:33;;;;;;;3.97;0.80;;;9.30;99.90;;;;;;4926523;29;20115;-80
2023/12/23 03:40:09;;;;;;;6.38;0.98;;;9.30;99.90;;;;;;4925729;29;20036;-80
2023/12/23 03:42:38;;;;;;;4.03;0.60;;;9.30;99.90;;;;;;4894440;29;20032;-81
2023/12/23 03:45:10;;;;;;;4.05;0.63;;;9.30;99.90;;;;;;4899173;29;20040;-79
2023/12/23 03:48:04;;;;;;;3.80;0.60;;;9.30;99.90;;;;;;4891180;29;20024;-83
2023/12/23 03:50:47;;;;;;;6.77;1.10;;;9.30;99.90;;;;;;4903192;29;20032;-78
2023/12/23 03:53:54;;;;;;;4.05;1.05;;;9.30;99.90;;;;;;4910623;29;20160;-80
2023/12/23 03:56:25;;;;;;;;;;;9.30;99.90;;;;;;4895126;29;20334;-79
2023/12/23 03:59:08;;;;;;;3.85;0.85;;;9.30;99.90;;;;;;4893686;29;19906;-81
2023/12/23 04:01:35;;;;;;;2.85;0.50;;;9.40;99.90;;;;;;4907085;29;20028;-80
2023/12/23 04:04:20;;;;;;;3.63;0.65;;;9.30;99.90;;;;;;4875397;29;20033;-80
2023/12/23 04:06:49;;;;;;;3.58;0.60;;;9.30;99.90;;;;;;4907036;29;20025;-78
2023/12/23 04:09:18;;;;;;;3.40;0.52;;;9.30;99.90;;;;;;4891194;29;20107;-78
2023/12/23 04:11:44;;;;;;;2.67;0.60;;;9.30;99.90;;;;;;4906992;29;20271;-79
2023/12/23 04:14:21;;;;;;;3.50;0.60;;;9.10;99.90;;;;;;4907522;29;20104;-80
2023/12/23 04:17:11;;;;;;;2.28;0.70;;;9.00;99.90;;;;;;4906028;29;20391;-79
2023/12/23 04:19:57;;;;;;;2.70;0.60;;;8.90;99.90;;;;;;4893406;29;20051;-81
2023/12/23 04:22:23;;;;;;;1.95;0.50;;;8.90;99.90;;;;;;4891000;29;20032;-80
2023/12/23 04:25:17;;;;;;;2.75;0.90;;;9.00;99.90;;;;;;4887385;29;20387;-83
2023/12/23 04:28:04;;;;;;;3.17;0.93;;;8.90;99.90;;;;;;4905893;29;20315;-80
2023/12/23 04:30:30;;;;;;;3.42;0.73;;;9.00;99.90;;;;;;4875085;29;20055;-81
2023/12/23 04:32:56;;;;;;;2.30;0.50;;;9.00;99.90;;;;;;4907521;29;20033;-79
2023/12/23 04:35:40;;;;;;;2.50;0.57;;;9.10;99.90;;;;;;4902265;29;20024;-82
2023/12/23 04:38:06;;;;;;;4.65;0.60;;;9.10;99.90;;;;;;4906933;29;20032;-77
2023/12/23 04:40:33;;;;;;;3.65;0.77;;;9.10;99.90;;;;;;4890270;29;20304;-78
2023/12/23 04:43:02;;;;;;;2.92;0.50;;;9.10;99.90;;;;;;4906313;29;20084;-79
2023/12/23 04:45:28;;;;;;;3.55;0.52;;;9.20;99.90;;;;;;4905391;29;20229;-80
2023/12/23 04:47:54;;;;;;;3.70;0.73;;;9.20;99.90;;;;;;4907159;29;20029;-76
2023/12/23 04:50:19;;;;;;;4.63;0.70;;;9.30;99.90;;;;;;4909136;29;20374;-78
2023/12/23 04:53:04;;;;;;;4.55;0.65;;;9.20;99.90;;;;;;4923127;29;20118;-79
2023/12/23 04:55:33;;;;;;;2.67;0.50;;;9.30;99.90;;;;;;4912293;29;20088;-79
2023/12/23 04:57:59;;;;;;;2.35;0.50;;;9.20;99.90;;;;;;4928321;29;20103;-78
2023/12/23 05:00:30;;;;;;;1.60;0.30;;;9.30;99.90;;;;;;4930113;29;20035;-80
2023/12/23 05:03:01;;;;;;;3.50;0.40;;;9.30;99.90;;;;;;4908557;29;20048;-76
2023/12/23 05:05:33;;;;;;;1.77;0.40;;;9.30;99.90;;;;;;4909137;29;20112;-79
2023/12/23 05:08:25;;;;;;;1.80;0.50;;;9.40;99.90;;;;;;4908900;29;20058;-81
2023/12/23 05:11:00;;;;;;;2.00;0.40;;;9.40;99.90;;;;;;4907811;29;20056;-79
2023/12/23 05:13:25;;;;;;;2.05;0.50;;;9.40;99.90;;;;;;4908617;29;20049;-75
2023/12/23 05:15:54;;;;;;;3.03;0.30;;;9.40;99.90;;;;;;4900384;29;20045;-79
2023/12/23 05:18:26;;;;;;;2.63;0.38;;;9.40;99.90;;;;;;4908642;29;20062;-80
2023/12/23 05:20:52;;;;;;;1.27;0.40;;;9.40;99.90;;;;;;4892662;29;20092;-81
2023/12/23 05:23:17;;;;;;;3.53;0.88;;;9.50;99.90;;;;;;4892763;29;20183;-77
2023/12/23 05:25:46;;;;;;;1.30;0.30;;;9.50;99.90;;;;;;4907997;29;20064;-78
2023/12/23 05:28:14;;;;;;;;;;;9.40;99.90;;;;;;4890411;29;20028;-79
2023/12/23 05:30:40;;;;;;;1.20;0.20;;;9.40;99.90;;;;;;4892236;29;20110;-79
2023/12/23 05:33:06;;;;;;;1.42;0.30;;;9.40;99.90;;;;;;4896297;29;20115;-80
2023/12/23 05:35:57;;;;;;;0.70;0.20;;;9.40;99.90;;;;;;4896562;29;20024;-79
2023/12/23 05:39:03;;;;;;;0.98;0.22;;;9.40;99.90;;;;;;4870785;29;20037;-81
2023/12/23 05:45:15;;;;;;;0.63;0.17;;;9.40;99.90;;;;;;4870595;29;20059;-77
2023/12/23 05:47:59;;;;;;;1.13;0.10;;;9.40;99.90;;;;;;4854944;29;20056;-79
2023/12/23 05:54:13;;;;;;;1.40;0.20;;;9.40;99.90;;;;;;4929069;29;20410;-79
2023/12/23 05:56:45;;;;;;;0.52;0.10;;;9.40;99.90;;;;;;4911404;29;20048;-81
2023/12/23 05:59:10;;;;;;;1.10;0.13;;;9.30;99.90;;;;;;4912338;29;20096;-79
2023/12/23 06:01:36;;;;;;;0.98;0.15;;;9.30;99.90;;;;;;4928248;29;20024;-76
2023/12/23 06:04:05;;;;;;;0.40;0.10;;;9.10;99.90;;;;;;4927130;29;20044;-79
2023/12/23 06:06:39;;;;;;;1.60;0.57;;;9.10;99.90;;;;;;4928389;29;20038;-79
2023/12/23 06:09:08;;;;;;;1.02;0.10;;;9.00;99.90;;;;;;4896236;29;20056;-78
2023/12/23 06:11:40;;;;;;;0.63;0.10;;;9.00;99.90;;;;;;4928284;29;20043;-79
2023/12/23 06:14:05;;;;;;;0.50;0.10;;;9.00;99.90;;;;;;4928830;29;20036;-79
2023/12/23 06:16:53;;;;;;;0.20;0.10;;;8.90;99.90;;;;;;4928001;29;20346;-78
2023/12/23 06:19:28;;;;;;;0.60;0.13;;;8.90;99.90;;;;;;4912170;29;20088;-79
2023/12/23 06:22:05;;;;;;;0.17;0.00;;;8.90;99.90;;;;;;4926815;29;20028;-81
2023/12/23 06:24:49;;;;;;;0.32;0.10;;;8.90;99.90;;;;;;4907955;29;20039;-82
2023/12/23 06:27:38;;;;;;;0.25;0.10;;;8.90;99.90;;;;;;4893197;29;20232;-79
2023/12/23 06:30:13;;;;;;;1.20;0.10;;;8.90;99.90;;;;;;4877479;29;20033;-78
2023/12/23 06:32:41;;;;;;;0.45;0.10;;;8.80;99.90;;;;;;4892417;29;20074;-79
2023/12/23 06:35:13;;;;;;;;;;;8.80;99.90;;;;;;4893287;29;20080;-78
2023/12/23 06:38:23;;;;;;;1.05;0.30;;;8.90;99.90;;;;;;4908691;29;19911;-79
2023/12/23 06:40:57;;;;;;;0.43;0.05;;;8.90;99.90;;;;;;4916388;29;20036;-79
2023/12/23 06:44:23;;;;;;;0.22;0.10;;;8.90;99.90;;;;;;4911704;29;20040;-78
2023/12/23 06:46:48;;;;;;;0.82;0.10;;;8.90;99.90;;;;;;4895085;29;20166;-78
2023/12/23 06:53:02;;;;;;;1.45;0.15;;;8.90;99.90;;;;;;4928090;29;20168;-79
2023/12/23 06:55:30;;;;;;;0.17;0.00;;;8.90;99.90;;;;;;4894625;29;20318;-78
2023/12/23 06:58:00;;;;;;;0.30;0.10;;;8.90;99.90;;;;;;4916936;29;20316;-80
2023/12/23 07:00:31;;;;;;;0.80;0.10;;;8.90;99.90;;;;;;4888878;29;20029;-80
2023/12/23 07:03:23;;;;;;;1.77;0.20;;;8.90;99.90;;;;;;4873831;29;20036;-81
2023/12/23 07:05:48;;;;;;;0.60;0.03;;;8.90;99.90;;;;;;4873068;29;20044;-77
2023/12/23 07:08:15;;;;;;;0.35;0.10;;;8.90;99.90;;;;;;4889958;29;20036;-77
2023/12/23 07:11:03;;;;;;;0.47;0.10;;;8.90;99.90;;;;;;4903669;29;20057;-81
2023/12/23 07:13:44;;;;;;;0.20;0.10;;;8.90;99.90;;;;;;4903374;29;20319;-80
2023/12/23 07:16:33;;;;;;;0.30;0.00;;;8.90;99.90;;;;;;4907911;29;20334;-80
2023/12/23 07:18:59;;;;;;;0.60;0.13;;;8.90;99.90;;;;;;4907065;29;20302;-82
2023/12/23 07:21:24;;;;;;;0.35;0.00;;;8.90;99.90;;;;;;4891625;29;20033;-81
2023/12/23 07:23:53;;;;;;;1.38;0.10;;;8.90;99.90;;;;;;4906776;29;20024;-80
2023/12/23 07:26:25;;;;;;;0.20;0.10;;;8.90;99.90;;;;;;4907291;29;20035;-77
2023/12/23 07:28:51;;;;;;;0.85;0.10;;;8.90;99.90;;;;;;4898329;29;20029;-78
2023/12/23 07:31:20;;;;;;;0.15;0.10;;;8.90;99.90;;;;;;4872999;29;20133;-77
2023/12/23 07:34:12;;;;;;;;;;;;;;;;;;;;;
2023/12/23 07:36:38;;;;;;;1.13;0.10;;;8.90;99.90;;;;;;4889130;29;20029;-78
2023/12/23 07:39:31;;;;;;;1.35;0.10;;;8.90;99.90;;;;;;4888347;29;20049;-81
2023/12/23 07:42:45;;;;;;;0.40;0.10;;;8.90;99.90;;;;;;4889214;29;20025;-79
2023/12/23 07:45:11;;;;;;;1.42;0.10;;;9.00;99.90;;;;;;4863163;29;20044;-79
2023/12/23 07:47:44;;;;;;;1.88;0.13;;;9.00;99.90;;;;;;4889055;29;20227;-78
2023/12/23 07:50:13;;;;;;;1.30;0.10;;;9.00;99.90;;;;;;4881403;29;20176;-80
2023/12/23 07:52:39;;;;;;;1.40;0.17;;;9.00;99.90;;;;;;4924206;29;20032;-78
2023/12/23 07:55:08;;;;;;;0.15;0.03;;;9.10;99.90;;;;;;4909898;29;20028;-79
2023/12/23 07:57:34;;;;;;;1.65;0.20;;;9.20;99.90;;;;;;4925109;29;20223;-77
2023/12/23 08:00:36;;;;;;;1.50;0.30;;;9.20;99.90;;;;;;4926359;29;20095;-80
2023/12/23 08:03:02;;;;;;;0.80;0.10;;;9.30;99.90;;;;;;4873653;29;20219;-78
2023/12/23 08:05:33;;;;;;;0.63;0.10;;;9.20;99.90;;;;;;4888563;29;20068;-78
2023/12/23 08:08:38;;;;;;;0.40;0.10;;;9.20;99.90;;;;;;4903617;29;20036;-78
2023/12/23 08:11:04;;;;;;;0.68;0.10;;;9.20;99.90;;;;;;4903696;29;20060;-78
2023/12/23 08:13:40;;;;;;;1.20;0.10;;;9.20;99.90;;;;;;4887355;29;20025;-81
2023/12/23 08:16:31;;;;;;;1.35;0.20;;;9.30;99.90;;;;;;4887414;29;20048;-77
2023/12/23 08:18:57;;;;;;;0.73;0.20;;;9.20;99.90;;;;;;4902955;29;20311;-76
2023/12/23 08:21:23;;;;;;;1.10;0.20;;;9.20;99.90;;;;;;4887363;29;20057;-77
2023/12/23 08:23:51;;;;;;;0.60;0.08;;;9.30;99.90;;;;;;4902433;29;20021;-78
2023/12/23 08:26:17;;;;;;;0.32;0.08;;;9.30;99.90;;;;;;4888334;29;20117;-78
2023/12/23 08:28:51;;;;;;;1.95;0.10;;;9.40;99.90;;;;;;4902189;29;20037;-80
2023/12/23 08:31:17;;;;;;;0.47;0.10;;;9.30;99.90;;;;;;4903019;29;20100;-79
2023/12/23 08:33:46;;;;;;;0.40;0.10;;;9.40;99.90;;;;;;4902564;29;20117;-79
2023/12/23 08:36:49;;;;;;;0.57;0.20;;;9.50;99.90;;;;;;4903240;29;20020;-82
2023/12/23 08:39:19;;;;;;;0.40;0.10;;;9.60;99.90;;;;;;4920887;29;20111;-79
2023/12/23 08:41:46;;;;;;;1.20;0.10;;;9.60;99.90;;;;;;4905555;29;20105;-78
2023/12/23 08:44:15;;;;;;;0.93;0.10;;;9.60;99.90;;;;;;4907107;29;20024;-78
2023/12/23 08:46:50;;;;;;;0.20;0.10;;;9.60;99.90;;;;;;4889880;29;20215;-78
2023/12/23 08:49:42;;;;;;;0.88;0.08;;;9.60;99.90;;;;;;4896376;29;20073;-81
2023/12/23 08:52:08;;;;;;;0.68;0.10;;;9.60;99.90;;;;;;4889759;29;20101;-79
2023/12/23 08:54:37;;;;;;;1.65;0.13;;;9.60;99.90;;;;;;4902806;29;20024;-80
2023/12/23 08:57:03;;;;;;;0.43;0.10;;;9.60;99.90;;;;;;4914602;29;20056;-78
2023/12/23 08:59:31;;;;;;;0.20;0.00;;;9.60;99.90;;;;;;4924595;29;20341;-81
2023/12/23 09:02:06;;;;;;;0.77;0.10;;;9.70;99.90;;;;;;4925532;29;20039;-79
2023/12/23 09:04:34;;;;;;;0.95;0.20;;;9.70;99.90;;;;;;4908923;29;20251;-78
2023/12/23 09:07:40;;;;;;;0.22;0.00;;;9.70;99.90;;;;;;4909224;29;20040;-80
2023/12/23 09:10:07;;;;;;;0.85;0.10;;;9.70;99.90;;;;;;4894268;29;20041;-78
2023/12/23 09:12:39;;;;;;;1.50;0.10;;;9.80;99.90;;;;;;4906184;29;20289;-78
2023/12/23 09:15:11;;;;;;;0.20;0.00;;;9.80;99.90;;;;;;4890624;29;20255;-79
2023/12/23 09:17:39;;;;;;;0.43;0.10;;;9.80;99.90;;;;;;4905863;29;20025;-78
2023/12/23 09:20:10;;;;;;;0.65;0.10;;;9.80;99.90;;;;;;4907116;29;20055;-78
2023/12/23 09:22:36;;;;;;;0.50;0.13;;;9.80;99.90;;;;;;4890052;29;20021;-80
2023/12/23 09:25:02;;;;;;;0.32;0.10;;;9.80;99.90;;;;;;4905609;29;20192;-78
2023/12/23 09:27:31;;;;;;;0.38;0.10;;;9.80;99.90;;;;;;4906918;29;20060;-79
2023/12/23 09:30:04;;;;;;;0.73;0.20;;;9.90;99.90;;;;;;4922736;29;20163;-77
2023/12/23 09:32:29;;;;;;;0.30;0.05;;;9.90;99.50;;;;;;4925160;29;20032;-77
2023/12/23 09:34:55;;;;;;;0.30;0.08;;;9.90;99.40;;;;;;4925599;29;20436;-77
2023/12/23 09:37:24;;;;;;;0.55;0.10;;;10.00;99.40;;;;;;4926048;29;20043;-78
2023/12/23 09:39:50;;;;;;;0.25;0.10;;;10.10;99.40;;;;;;4928134;29;20036;-78
2023/12/23 09:42:25;;;;;;;0.55;0.10;;;10.00;99.10;;;;;;4927512;29;20124;-79
2023/12/23 09:44:50;;;;;;;0.65;0.10;;;10.00;99.10;;;;;;4901194;29;20036;-78
2023/12/23 09:47:17;;;;;;;0.43;0.00;;;10.00;99.00;;;;;;4892898;29;20043;-83
2023/12/23 09:49:52;;;;;;;0.52;0.10;;;10.10;98.90;;;;;;4898155;29;20023;-78
2023/12/23 09:52:21;;;;;;;0.40;0.10;;;10.10;98.80;;;;;;4912148;29;20330;-79
2023/12/23 09:54:51;;;;;;;0.20;0.10;;;10.00;98.90;;;;;;4911441;29;20040;-78
2023/12/23 09:57:18;;;;;;;0.73;0.10;;;10.00;98.90;;;;;;4928757;29;20044;-79
2023/12/23 09:59:48;;;;;;;0.95;0.10;;;10.10;99.00;;;;;;4895626;29;20039;-80
2023/12/23 10:02:14;;;;;;;0.60;0.20;;;10.10;98.90;;;;;;4923967;29;20048;-79
2023/12/23 10:04:40;;;;;;;0.13;0.10;;;10.20;98.60;;;;;;4895774;29;20031;-80
2023/12/23 10:07:24;;;;;;;0.70;0.20;;;10.20;98.40;;;;;;4914686;29;20223;-79
2023/12/23 10:09:50;;;;;;;0.30;0.05;;;10.20;98.50;;;;;;4928146;29;20036;-83
2023/12/23 10:12:41;;;;;;;0.38;0.10;;;10.20;98.60;;;;;;4928276;29;20088;-75
2023/12/23 10:15:07;;;;;;;0.47;0.10;;;10.20;98.50;;;;;;4928538;29;20035;-76
2023/12/23 10:17:32;;;;;;;0.20;0.10;;;10.30;98.40;;;;;;4927582;29;20040;-81
2023/12/23 10:20:05;;;;;;;0.22;0.05;;;10.30;98.30;;;;;;4926865;29;20039;-78
2023/12/23 10:22:30;;;;;;;0.00;0.00;;;10.40;98.00;;;;;;4878708;29;20039;-81
2023/12/23 10:24:57;;;;;;;0.30;0.10;;;10.30;98.20;;;;;;4877080;29;20051;-78
2023/12/23 10:27:35;;;;;;;0.30;0.10;;;10.30;98.30;;;;;;4916572;29;20036;-78
2023/12/23 10:30:23;;;;;;;0.45;0.10;;;10.20;98.40;;;;;;4932421;29;20036;-79
2023/12/23 10:32:51;;;;;;;1.75;0.20;;;10.20;98.40;;;;;;4924062;29;20036;-80
2023/12/23 10:35:19;;;;;;;1.05;0.20;;;10.20;98.40;;;;;;4911293;29;20040;-77
2023/12/23 10:37:45;;;;;;;;;;;10.20;98.40;;;;;;4912041;29;20063;-77
2023/12/23 10:40:29;;;;;;;0.90;0.10;;;10.20;98.60;;;;;;4915959;29;19927;-77
2023/12/23 10:42:58;;;;;;;0.28;0.10;;;10.20;98.50;;;;;;4909702;29;20035;-78
2023/12/23 10:45:25;;;;;;;0.28;0.10;;;10.30;98.60;;;;;;4927309;29;20040;-80
2023/12/23 10:47:58;;;;;;;0.20;0.10;;;10.40;98.30;;;;;;4910194;29;20340;-79
2023/12/23 10:50:25;;;;;;;0.28;0.10;;;10.40;98.30;;;;;;4909494;29;20337;-81
2023/12/23 10:52:52;;;;;;;0.80;0.20;;;10.30;98.60;;;;;;4910543;29;20047;-77
2023/12/23 10:55:29;;;;;;;0.45;0.00;;;10.40;98.40;;;;;;4927351;29;20213;-79
2023/12/23 10:57:55;;;;;;;0.30;0.00;;;10.50;98.20;;;;;;4927142;29;20343;-79
2023/12/23 11:00:21;;;;;;;0.30;0.10;;;10.40;98.20;;;;;;4913891;29;20056;-79
2023/12/23 11:02:49;;;;;;;0.45;0.00;;;10.40;98.50;;;;;;4927466;29;20382;-80
2023/12/23 11:05:22;;;;;;;0.20;0.10;;;10.40;98.50;;;;;;4910688;29;20035;-80
2023/12/23 11:07:53;;;;;;;1.65;0.20;;;10.40;98.30;;;;;;4927437;29;20329;-81
2023/12/23 11:10:19;;;;;;;0.20;0.10;;;10.40;98.30;;;;;;4927451;29;20020;-79
2023/12/23 11:12:47;;;;;;;0.52;0.10;;;10.40;98.30;;;;;;4926903;29;20057;-79
2023/12/23 11:15:13;;;;;;;0.52;0.10;;;10.50;98.10;;;;;;4927990;29;20099;-80
2023/12/23 11:17:45;;;;;;;0.38;0.10;;;10.60;97.90;;;;;;4927169;29;20032;-80
2023/12/23 11:20:33;;;;;;;1.20;0.15;;;10.50;98.00;;;;;;4926746;29;20242;-80
2023/12/23 11:23:27;;;;;;;0.60;0.10;;;10.40;98.20;;;;;;4927747;29;20091;-80
2023/12/23 11:26:15;;;;;;;0.22;0.10;;;10.50;97.90;;;;;;4910528;29;20222;-78
2023/12/23 11:28:48;;;;;;;0.30;0.10;;;10.50;97.70;;;;;;4909918;29;20223;-78
2023/12/23 11:31:52;;;;;;;0.15;0.00;;;10.50;97.90;;;;;;4910040;29;20111;-78
2023/12/23 11:34:27;;;;;;;0.47;0.10;;;10.60;97.80;;;;;;4927154;29;20107;-80
2023/12/23 11:36:53;;;;;;;0.15;0.05;;;10.70;97.60;;;;;;4910175;29;20032;-80
2023/12/23 11:39:37;;;;;;;0.25;0.08;;;10.50;97.50;;;;;;4910622;29;20083;-80
2023/12/23 11:42:13;;;;;;;0.52;0.10;;;10.60;97.30;;;;;;4926930;29;20020;-82
2023/12/23 11:44:56;;;;;;;0.70;0.40;;;10.60;97.60;;;;;;4926797;29;20055;-80
2023/12/23 11:47:31;;;;;;;0.30;0.10;;;10.60;97.00;;;;;;4925445;29;20043;-81
2023/12/23 11:49:57;;;;;;;0.32;0.10;;;10.60;97.40;;;;;;4926380;29;20210;-80
2023/12/23 11:52:25;;;;;;;0.03;0.00;;;10.60;97.10;;;;;;4911077;29;20032;-81
2023/12/23 11:54:54;;;;;;;;;;;10.60;97.20;;;;;;4926388;29;20016;-79
2023/12/23 12:01:06;;;;;;;0.10;0.00;;;10.70;97.50;;;;;;4923197;29;20060;-79
2023/12/23 12:03:46;;;;;;;0.20;0.10;;;10.70;97.10;;;;;;4890769;29;20104;-79
2023/12/23 12:06:15;;;;;;;0.70;0.30;;;10.70;97.20;;;;;;4908105;29;20044;-81
2023/12/23 12:08:40;;;;;;;0.30;0.10;;;10.60;97.40;;;;;;4897210;29;20255;-78
2023/12/23 12:11:06;;;;;;;0.17;0.00;;;10.70;97.50;;;;;;4909811;29;20039;-79
2023/12/23 12:13:36;;;;;;;0.40;0.10;;;10.80;97.10;;;;;;4908688;29;20301;-77
2023/12/23 12:16:05;;;;;;;1.35;0.10;;;10.80;97.20;;;;;;4909568;29;20220;-77
2023/12/23 12:18:31;;;;;;;0.35;0.10;;;10.70;97.20;;;;;;4921244;29;20369;-79
2023/12/23 12:21:07;;;;;;;0.65;0.10;;;10.70;97.50;;;;;;4909211;29;20028;-81
2023/12/23 12:23:35;;;;;;;0.32;0.10;;;10.80;97.30;;;;;;4908743;29;20267;-77
2023/12/23 12:26:14;;;;;;;0.00;0.00;;;10.70;97.00;;;;;;4925717;29;20195;-78
2023/12/23 12:29:06;;;;;;;0.40;0.10;;;10.50;97.30;;;;;;4911737;29;20079;-74
2023/12/23 12:31:41;;;;;;;0.45;0.10;;;10.50;97.40;;;;;;4924916;29;20221;-79
2023/12/23 12:34:11;;;;;;;0.32;0.10;;;10.40;97.80;;;;;;4909041;29;20039;-78
2023/12/23 12:36:37;;;;;;;0.10;0.03;;;10.40;97.60;;;;;;4907698;29;20337;-77
2023/12/23 12:39:13;;;;;;;0.80;0.10;;;10.40;97.50;;;;;;4926134;29;20020;-79
2023/12/23 12:44:25;;;;;;;0.93;0.13;;;10.50;97.50;;;;;;4911183;29;20043;-80
2023/12/23 12:46:54;;;;;;;0.15;0.00;;;10.60;97.30;;;;;;4925725;29;20074;-75
2023/12/23 12:49:22;;;;;;;;;;;10.70;97.20;;;;;;4925636;29;20330;-79
2023/12/23 12:51:52;;;;;;;0.98;0.00;;;10.60;97.10;;;;;;4908471;29;20101;-81
2023/12/23 12:54:24;;;;;;;0.90;0.20;;;10.60;97.20;;;;;;4921471;29;20032;-79
2023/12/23 12:57:13;;;;;;;0.30;0.05;;;10.50;97.10;;;;;;4922457;29;20378;-81
2023/12/23 13:00:00;;;;;;;1.00;0.17;;;10.60;97.20;;;;;;4925349;29;20035;-82
2023/12/23 13:02:47;;;;;;;0.40;0.10;;;10.60;97.30;;;;;;4926092;29;20036;-79
2023/12/23 13:06:03;;;;;;;0.50;0.17;;;10.60;97.30;;;;;;4925993;29;20326;-78
2023/12/23 13:09:07;;;;;;;0.30;0.10;;;10.50;97.60;;;;;;4909297;29;20136;-80
2023/12/23 13:11:57;;;;;;;0.70;0.17;;;10.50;97.60;;;;;;4834576;29;20105;-78
2023/12/23 13:18:05;;;;;;;0.60;0.15;;;10.50;97.50;;;;;;4780426;30;20038;-78
2023/12/23 13:20:33;;;;;;;0.10;0.00;;;10.60;97.10;;;;;;4786486;29;20341;-77
2023/12/23 13:26:22;;;;;;;0.13;0.00;;;10.70;96.80;;;;;;4853095;29;19920;-79
2023/12/23 13:32:20;;;;;;;0.57;0.10;;;10.80;96.80;;;;;;4852931;29;20033;-80
2023/12/23 13:34:49;;;;;;;0.50;0.10;;;10.70;96.60;;;;;;4852108;29;20034;-81
2023/12/23 13:37:54;;;;;;;0.47;0.00;;;10.60;96.70;;;;;;4852117;29;20097;-78
2023/12/23 13:40:25;;;;;;;0.30;0.00;;;10.60;96.90;;;;;;4827390;29;20022;-77
2023/12/23 13:42:54;;;;;;;0.77;0.10;;;10.60;97.10;;;;;;4836668;29;20099;-81
2023/12/23 13:45:19;;;;;;;0.20;0.08;;;10.60;97.10;;;;;;4852377;29;20026;-81
2023/12/23 13:47:54;;;;;;;0.30;0.20;;;10.60;96.90;;;;;;4856672;29;20140;-83
2023/12/23 13:51:04;;;;;;;0.32;0.00;;;10.60;97.10;;;;;;4915955;29;20051;-81
2023/12/23 13:53:30;;;;;;;0.82;0.10;;;10.50;97.20;;;;;;4870303;29;20059;-80
2023/12/23 13:56:11;;;;;;;0.50;0.10;;;10.60;97.40;;;;;;4870928;29;20328;-81
2023/12/23 13:58:38;;;;;;;0.40;0.10;;;10.60;97.50;;;;;;4915747;29;20135;-77
2023/12/23 14:01:04;;;;;;;0.10;0.10;;;10.50;97.50;;;;;;4927406;29;20048;-80
2023/12/23 14:03:43;;;;;;;0.10;0.10;;;10.40;97.80;;;;;;4928134;29;20024;-79